Аэропорт: Наримановка. Костанай

ICAO: UAUU

METAR:
2020-08-12 06:30:00
UAUU 120630Z 32007MPS 9999 OVC009 15/13 Q1003 R33/190060 NOSIG RMK QFE737/0982
METAR:
2020-08-12 05:00:00
TAF UAUU 120500Z 1206/1215 32006MPS 3100 -DZ BR BKN004 BKN011 TEMPO 1206/1215 33009MPS 2000 -SHRA BR BKN003 BKN011CB